Metar z pełnej godziny Komunikat METAR ze strony awiacja.imgw.pl Metar G00 EPSC METAR EPSC 291900Z 36006KT 340V060 CAVOK 14/02 Q1027 =